sensor_id;sensor_type;location;lat;lon;timestamp;P1;durP1;ratioP1;P2;durP2;ratioP2
61675;SDS011;47574;52.090;5.244;2023-04-28T00:03:09;8.2;;;6.1;;
61675;SDS011;47574;52.090;5.244;2023-04-28T00:04:45;8.81;;;6.4;;
61675;SDS011;47574;52.090;5.244;2023-04-28T00:06:21;7.0;;;6.3;;
61675;SDS011;47574;52.090;5.244;2023-04-28T00:12:46;7.3;;;6.2;;
61675;SDS011;47574;52.090;5.244;2023-04-28T00:16:00;7.9;;;6.0;;
61675;SDS011;47574;52.090;5.244;2023-04-28T00:17:36;9.1;;;6.3;;
61675;SDS011;47574;52.090;5.244;2023-04-28T00:19:12;8.0;;;5.9;;
61675;SDS011;47574;52.090;5.244;2023-04-28T00:20:48;10.3;;;5.8;;
61675;SDS011;47574;52.090;5.244;2023-04-28T00:24:00;10.3;;;5.8;;
61675;SDS011;47574;52.090;5.244;2023-04-28T00:25:36;8.4;;;5.8;;
61675;SDS011;47574;52.090;5.244;2023-04-28T00:27:12;7.9;;;5.9;;
61675;SDS011;47574;52.090;5.244;2023-04-28T00:30:25;8.6;;;6.2;;
61675;SDS011;47574;52.090;5.244;2023-04-28T00:32:02;7.1;;;5.8;;
61675;SDS011;47574;52.090;5.244;2023-04-28T00:33:38;7.2;;;5.9;;
61675;SDS011;47574;52.090;5.244;2023-04-28T00:36:51;7.7;;;5.8;;
61675;SDS011;47574;52.090;5.244;2023-04-28T00:38:27;8.0;;;5.9;;
61675;SDS011;47574;52.090;5.244;2023-04-28T00:40:03;7.9;;;6.2;;
61675;SDS011;47574;52.090;5.244;2023-04-28T00:43:16;7.8;;;5.9;;
61675;SDS011;47574;52.090;5.244;2023-04-28T00:44:52;8.31;;;6.1;;
61675;SDS011;47574;52.090;5.244;2023-04-28T00:46:29;8.0;;;5.8;;
61675;SDS011;47574;52.090;5.244;2023-04-28T00:48:07;8.81;;;5.7;;
61675;SDS011;47574;52.090;5.244;2023-04-28T00:51:22;7.8;;;5.5;;
61675;SDS011;47574;52.090;5.244;2023-04-28T00:52:58;7.7;;;5.8;;
61675;SDS011;47574;52.090;5.244;2023-04-28T00:54:36;6.6;;;5.8;;
61675;SDS011;47574;52.090;5.244;2023-04-28T00:57:48;7.5;;;6.0;;
61675;SDS011;47574;52.090;5.244;2023-04-28T00:59:26;7.1;;;5.6;;
61675;SDS011;47574;52.090;5.244;2023-04-28T01:02:39;8.31;;;5.3;;
61675;SDS011;47574;52.090;5.244;2023-04-28T01:05:55;7.3;;;5.3;;
61675;SDS011;47574;52.090;5.244;2023-04-28T01:07:32;7.9;;;5.5;;
61675;SDS011;47574;52.090;5.244;2023-04-28T01:09:08;8.31;;;5.7;;
61675;SDS011;47574;52.090;5.244;2023-04-28T01:12:20;8.31;;;5.7;;
61675;SDS011;47574;52.090;5.244;2023-04-28T01:13:57;8.81;;;5.6;;
61675;SDS011;47574;52.090;5.244;2023-04-28T01:15:33;7.1;;;5.7;;
61675;SDS011;47574;52.090;5.244;2023-04-28T01:18:47;7.9;;;5.3;;
61675;SDS011;47574;52.090;5.244;2023-04-28T01:20:23;7.0;;;5.7;;
61675;SDS011;47574;52.090;5.244;2023-04-28T01:21:59;8.0;;;5.7;;
61675;SDS011;47574;52.090;5.244;2023-04-28T01:23:35;8.0;;;5.7;;
61675;SDS011;47574;52.090;5.244;2023-04-28T01:26:47;6.6;;;5.3;;
61675;SDS011;47574;52.090;5.244;2023-04-28T01:28:23;5.9;;;5.0;;
61675;SDS011;47574;52.090;5.244;2023-04-28T01:29:59;5.6;;;4.91;;
61675;SDS011;47574;52.090;5.244;2023-04-28T01:33:12;7.9;;;5.3;;
61675;SDS011;47574;52.090;5.244;2023-04-28T01:34:48;6.2;;;5.2;;
61675;SDS011;47574;52.090;5.244;2023-04-28T01:36:24;7.9;;;5.3;;
61675;SDS011;47574;52.090;5.244;2023-04-28T01:39:37;6.1;;;4.91;;
61675;SDS011;47574;52.090;5.244;2023-04-28T01:41:13;6.0;;;5.4;;
61675;SDS011;47574;52.090;5.244;2023-04-28T01:42:49;9.0;;;5.3;;
61675;SDS011;47574;52.090;5.244;2023-04-28T01:46:01;6.3;;;5.4;;
61675;SDS011;47574;52.090;5.244;2023-04-28T01:47:38;6.4;;;5.2;;
61675;SDS011;47574;52.090;5.244;2023-04-28T01:49:14;7.3;;;5.11;;
61675;SDS011;47574;52.090;5.244;2023-04-28T01:50:50;5.7;;;5.11;;
61675;SDS011;47574;52.090;5.244;2023-04-28T01:54:02;5.8;;;5.11;;
61675;SDS011;47574;52.090;5.244;2023-04-28T01:55:38;7.3;;;5.0;;
61675;SDS011;47574;52.090;5.244;2023-04-28T01:57:14;7.2;;;5.2;;
61675;SDS011;47574;52.090;5.244;2023-04-28T02:00:27;5.8;;;4.5;;
61675;SDS011;47574;52.090;5.244;2023-04-28T02:02:03;7.7;;;5.2;;
61675;SDS011;47574;52.090;5.244;2023-04-28T02:03:39;6.0;;;5.11;;
61675;SDS011;47574;52.090;5.244;2023-04-28T02:06:51;7.3;;;5.11;;
61675;SDS011;47574;52.090;5.244;2023-04-28T02:08:27;7.6;;;4.7;;
61675;SDS011;47574;52.090;5.244;2023-04-28T02:10:03;6.9;;;5.2;;
61675;SDS011;47574;52.090;5.244;2023-04-28T02:13:16;5.5;;;4.91;;
61675;SDS011;47574;52.090;5.244;2023-04-28T02:14:53;7.2;;;5.0;;
61675;SDS011;47574;52.090;5.244;2023-04-28T02:16:29;5.11;;;4.61;;
61675;SDS011;47574;52.090;5.244;2023-04-28T02:18:05;7.6;;;5.11;;
61675;SDS011;47574;52.090;5.244;2023-04-28T02:21:17;6.1;;;4.8;;
61675;SDS011;47574;52.090;5.244;2023-04-28T02:22:53;6.8;;;4.91;;
61675;SDS011;47574;52.090;5.244;2023-04-28T02:24:29;5.11;;;4.7;;
61675;SDS011;47574;52.090;5.244;2023-04-28T02:27:45;6.1;;;4.61;;
61675;SDS011;47574;52.090;5.244;2023-04-28T02:29:21;8.1;;;5.0;;
61675;SDS011;47574;52.090;5.244;2023-04-28T02:31:05;6.2;;;4.8;;
61675;SDS011;47574;52.090;5.244;2023-04-28T02:32:49;5.7;;;4.61;;
61675;SDS011;47574;52.090;5.244;2023-04-28T02:36:01;5.8;;;4.7;;
61675;SDS011;47574;52.090;5.244;2023-04-28T02:37:39;7.1;;;4.91;;
61675;SDS011;47574;52.090;5.244;2023-04-28T02:39:15;7.8;;;4.8;;
61675;SDS011;47574;52.090;5.244;2023-04-28T02:42:33;6.6;;;5.0;;
61675;SDS011;47574;52.090;5.244;2023-04-28T02:44:09;5.3;;;4.8;;
61675;SDS011;47574;52.090;5.244;2023-04-28T02:45:45;5.3;;;4.7;;
61675;SDS011;47574;52.090;5.244;2023-04-28T02:47:21;7.6;;;4.91;;
61675;SDS011;47574;52.090;5.244;2023-04-28T02:50:33;7.8;;;4.7;;
61675;SDS011;47574;52.090;5.244;2023-04-28T02:52:09;8.2;;;4.61;;
61675;SDS011;47574;52.090;5.244;2023-04-28T02:53:46;8.2;;;5.0;;
61675;SDS011;47574;52.090;5.244;2023-04-28T02:56:58;6.3;;;4.8;;
61675;SDS011;47574;52.090;5.244;2023-04-28T02:58:34;6.6;;;4.8;;
61675;SDS011;47574;52.090;5.244;2023-04-28T03:00:11;5.11;;;4.61;;
61675;SDS011;47574;52.090;5.244;2023-04-28T03:03:24;8.2;;;5.11;;
61675;SDS011;47574;52.090;5.244;2023-04-28T03:05:01;7.5;;;4.7;;
61675;SDS011;47574;52.090;5.244;2023-04-28T03:06:36;6.3;;;4.8;;
61675;SDS011;47574;52.090;5.244;2023-04-28T03:08:13;6.6;;;5.0;;
61675;SDS011;47574;52.090;5.244;2023-04-28T03:11:25;9.1;;;5.11;;
61675;SDS011;47574;52.090;5.244;2023-04-28T03:13:01;5.5;;;4.7;;
61675;SDS011;47574;52.090;5.244;2023-04-28T03:14:37;5.8;;;4.8;;
61675;SDS011;47574;52.090;5.244;2023-04-28T03:17:49;5.4;;;4.5;;
61675;SDS011;47574;52.090;5.244;2023-04-28T03:19:25;5.11;;;4.61;;
61675;SDS011;47574;52.090;5.244;2023-04-28T03:21:02;6.9;;;5.0;;
61675;SDS011;47574;52.090;5.244;2023-04-28T03:24:14;7.8;;;4.91;;
61675;SDS011;47574;52.090;5.244;2023-04-28T03:25:50;6.4;;;5.0;;
61675;SDS011;47574;52.090;5.244;2023-04-28T03:27:26;6.6;;;5.11;;
61675;SDS011;47574;52.090;5.244;2023-04-28T03:30:38;8.1;;;5.0;;
61675;SDS011;47574;52.090;5.244;2023-04-28T03:32:14;6.6;;;5.0;;
61675;SDS011;47574;52.090;5.244;2023-04-28T03:33:51;7.5;;;4.8;;
61675;SDS011;47574;52.090;5.244;2023-04-28T03:35:27;5.11;;;4.61;;
61675;SDS011;47574;52.090;5.244;2023-04-28T03:38:39;6.7;;;4.91;;
61675;SDS011;47574;52.090;5.244;2023-04-28T03:40:15;6.4;;;5.11;;
61675;SDS011;47574;52.090;5.244;2023-04-28T03:45:04;6.6;;;5.0;;
61675;SDS011;47574;52.090;5.244;2023-04-28T03:46:40;8.1;;;5.11;;
61675;SDS011;47574;52.090;5.244;2023-04-28T03:48:17;7.4;;;4.91;;
61675;SDS011;47574;52.090;5.244;2023-04-28T03:51:29;6.4;;;5.11;;
61675;SDS011;47574;52.090;5.244;2023-04-28T03:53:05;6.8;;;4.7;;
61675;SDS011;47574;52.090;5.244;2023-04-28T03:54:41;7.1;;;4.8;;
61675;SDS011;47574;52.090;5.244;2023-04-28T03:56:17;5.3;;;4.8;;
61675;SDS011;47574;52.090;5.244;2023-04-28T03:59:30;6.5;;;5.3;;
61675;SDS011;47574;52.090;5.244;2023-04-28T04:01:07;6.5;;;5.3;;
61675;SDS011;47574;52.090;5.244;2023-04-28T04:02:43;8.9;;;5.0;;
61675;SDS011;47574;52.090;5.244;2023-04-28T04:05:55;5.11;;;4.7;;
61675;SDS011;47574;52.090;5.244;2023-04-28T04:07:31;8.9;;;4.91;;
61675;SDS011;47574;52.090;5.244;2023-04-28T04:09:07;7.2;;;5.3;;
61675;SDS011;47574;52.090;5.244;2023-04-28T04:12:19;5.11;;;4.61;;
61675;SDS011;47574;52.090;5.244;2023-04-28T04:13:55;5.6;;;4.91;;
61675;SDS011;47574;52.090;5.244;2023-04-28T04:15:32;5.3;;;4.8;;
61675;SDS011;47574;52.090;5.244;2023-04-28T04:18:44;8.6;;;5.2;;
61675;SDS011;47574;52.090;5.244;2023-04-28T04:20:20;6.7;;;5.0;;
61675;SDS011;47574;52.090;5.244;2023-04-28T04:21:57;6.4;;;4.91;;
61675;SDS011;47574;52.090;5.244;2023-04-28T04:23:33;5.5;;;5.0;;
61675;SDS011;47574;52.090;5.244;2023-04-28T04:26:46;6.6;;;4.8;;
61675;SDS011;47574;52.090;5.244;2023-04-28T04:28:22;7.0;;;5.11;;
61675;SDS011;47574;52.090;5.244;2023-04-28T04:29:58;8.31;;;5.4;;
61675;SDS011;47574;52.090;5.244;2023-04-28T04:33:10;10.5;;;5.7;;
61675;SDS011;47574;52.090;5.244;2023-04-28T04:34:46;8.1;;;5.4;;
61675;SDS011;47574;52.090;5.244;2023-04-28T04:36:22;7.5;;;5.11;;
61675;SDS011;47574;52.090;5.244;2023-04-28T04:39:34;5.3;;;4.7;;
61675;SDS011;47574;52.090;5.244;2023-04-28T04:41:11;7.1;;;5.4;;
61675;SDS011;47574;52.090;5.244;2023-04-28T04:42:47;7.6;;;5.3;;
61675;SDS011;47574;52.090;5.244;2023-04-28T04:45:59;7.7;;;5.4;;
61675;SDS011;47574;52.090;5.244;2023-04-28T04:47:35;8.1;;;5.5;;
61675;SDS011;47574;52.090;5.244;2023-04-28T04:49:11;7.8;;;5.3;;
61675;SDS011;47574;52.090;5.244;2023-04-28T04:50:47;7.3;;;5.2;;
61675;SDS011;47574;52.090;5.244;2023-04-28T04:54:00;5.7;;;5.11;;
61675;SDS011;47574;52.090;5.244;2023-04-28T04:55:36;9.71;;;5.9;;
61675;SDS011;47574;52.090;5.244;2023-04-28T04:57:12;6.2;;;5.6;;
61675;SDS011;47574;52.090;5.244;2023-04-28T05:00:27;7.6;;;6.0;;
61675;SDS011;47574;52.090;5.244;2023-04-28T05:02:03;8.1;;;5.6;;
61675;SDS011;47574;52.090;5.244;2023-04-28T05:03:39;8.81;;;5.8;;
61675;SDS011;47574;52.090;5.244;2023-04-28T05:06:52;6.7;;;5.7;;
61675;SDS011;47574;52.090;5.244;2023-04-28T05:08:28;9.1;;;5.6;;
61675;SDS011;47574;52.090;5.244;2023-04-28T05:10:04;6.9;;;5.4;;
61675;SDS011;47574;52.090;5.244;2023-04-28T05:11:41;8.81;;;5.9;;
61675;SDS011;47574;52.090;5.244;2023-04-28T05:14:53;10.21;;;6.2;;
61675;SDS011;47574;52.090;5.244;2023-04-28T05:16:29;8.4;;;6.0;;
61675;SDS011;47574;52.090;5.244;2023-04-28T05:18:06;11.4;;;6.3;;
61675;SDS011;47574;52.090;5.244;2023-04-28T05:21:18;12.3;;;6.4;;
61675;SDS011;47574;52.090;5.244;2023-04-28T05:22:54;9.4;;;6.6;;
61675;SDS011;47574;52.090;5.244;2023-04-28T05:24:30;7.4;;;6.6;;
61675;SDS011;47574;52.090;5.244;2023-04-28T05:27:42;7.9;;;6.6;;
61675;SDS011;47574;52.090;5.244;2023-04-28T05:29:18;11.1;;;6.9;;
61675;SDS011;47574;52.090;5.244;2023-04-28T05:30:54;8.81;;;6.7;;
61675;SDS011;47574;52.090;5.244;2023-04-28T05:34:09;12.3;;;7.3;;
61675;SDS011;47574;52.090;5.244;2023-04-28T05:35:45;9.81;;;7.2;;
61675;SDS011;47574;52.090;5.244;2023-04-28T05:37:21;9.31;;;7.5;;
61675;SDS011;47574;52.090;5.244;2023-04-28T05:38:58;8.9;;;7.4;;
61675;SDS011;47574;52.090;5.244;2023-04-28T05:42:10;12.2;;;7.4;;
61675;SDS011;47574;52.090;5.244;2023-04-28T05:43:46;12.5;;;7.6;;
61675;SDS011;47574;52.090;5.244;2023-04-28T05:45:23;11.1;;;7.9;;
61675;SDS011;47574;52.090;5.244;2023-04-28T05:48:36;10.3;;;8.5;;
61675;SDS011;47574;52.090;5.244;2023-04-28T05:50:12;11.9;;;9.0;;
61675;SDS011;47574;52.090;5.244;2023-04-28T05:51:49;12.0;;;8.71;;
61675;SDS011;47574;52.090;5.244;2023-04-28T05:55:01;12.8;;;9.5;;
61675;SDS011;47574;52.090;5.244;2023-04-28T05:56:38;15.1;;;9.5;;
61675;SDS011;47574;52.090;5.244;2023-04-28T05:58:14;10.4;;;8.81;;
61675;SDS011;47574;52.090;5.244;2023-04-28T05:59:50;13.9;;;9.0;;
61675;SDS011;47574;52.090;5.244;2023-04-28T06:03:02;12.6;;;9.4;;
61675;SDS011;47574;52.090;5.244;2023-04-28T06:04:40;11.3;;;8.9;;
61675;SDS011;47574;52.090;5.244;2023-04-28T06:06:16;11.3;;;9.21;;
61675;SDS011;47574;52.090;5.244;2023-04-28T06:09:29;11.3;;;9.5;;
61675;SDS011;47574;52.090;5.244;2023-04-28T06:11:05;12.0;;;9.6;;
61675;SDS011;47574;52.090;5.244;2023-04-28T06:12:41;12.6;;;9.31;;
61675;SDS011;47574;52.090;5.244;2023-04-28T06:15:53;12.6;;;9.31;;
61675;SDS011;47574;52.090;5.244;2023-04-28T06:17:29;12.5;;;10.21;;
61675;SDS011;47574;52.090;5.244;2023-04-28T06:20:41;11.9;;;9.71;;
61675;SDS011;47574;52.090;5.244;2023-04-28T06:22:18;13.4;;;9.9;;
61675;SDS011;47574;52.090;5.244;2023-04-28T06:23:54;11.9;;;10.1;;
61675;SDS011;47574;52.090;5.244;2023-04-28T06:27:06;14.7;;;10.9;;
61675;SDS011;47574;52.090;5.244;2023-04-28T06:28:42;15.1;;;10.7;;
61675;SDS011;47574;52.090;5.244;2023-04-28T06:30:21;14.1;;;10.9;;
61675;SDS011;47574;52.090;5.244;2023-04-28T06:31:57;16.3;;;11.2;;
61675;SDS011;47574;52.090;5.244;2023-04-28T06:35:09;15.1;;;11.4;;
61675;SDS011;47574;52.090;5.244;2023-04-28T06:36:46;16.2;;;11.8;;
61675;SDS011;47574;52.090;5.244;2023-04-28T06:38:22;16.4;;;12.1;;
61675;SDS011;47574;52.090;5.244;2023-04-28T06:41:34;13.9;;;11.7;;
61675;SDS011;47574;52.090;5.244;2023-04-28T06:43:10;14.9;;;12.4;;
61675;SDS011;47574;52.090;5.244;2023-04-28T06:44:46;14.9;;;13.1;;
61675;SDS011;47574;52.090;5.244;2023-04-28T06:47:58;15.1;;;12.7;;
61675;SDS011;47574;52.090;5.244;2023-04-28T06:49:35;15.2;;;12.8;;
61675;SDS011;47574;52.090;5.244;2023-04-28T06:51:10;15.4;;;13.2;;
61675;SDS011;47574;52.090;5.244;2023-04-28T06:52:46;16.2;;;12.7;;
61675;SDS011;47574;52.090;5.244;2023-04-28T06:55:58;17.0;;;13.0;;
61675;SDS011;47574;52.090;5.244;2023-04-28T06:57:35;16.9;;;13.0;;
61675;SDS011;47574;52.090;5.244;2023-04-28T06:59:11;16.3;;;13.3;;
61675;SDS011;47574;52.090;5.244;2023-04-28T07:02:24;15.2;;;13.5;;
61675;SDS011;47574;52.090;5.244;2023-04-28T07:04:00;17.41;;;13.1;;
61675;SDS011;47574;52.090;5.244;2023-04-28T07:05:36;18.7;;;13.2;;
61675;SDS011;47574;52.090;5.244;2023-04-28T07:08:48;18.8;;;13.5;;
61675;SDS011;47574;52.090;5.244;2023-04-28T07:10:24;19.7;;;13.9;;
61675;SDS011;47574;52.090;5.244;2023-04-28T07:12:01;17.3;;;13.4;;
61675;SDS011;47574;52.090;5.244;2023-04-28T07:15:14;17.41;;;13.7;;
61675;SDS011;47574;52.090;5.244;2023-04-28T07:16:50;16.9;;;14.2;;
61675;SDS011;47574;52.090;5.244;2023-04-28T07:18:26;17.11;;;13.4;;
61675;SDS011;47574;52.090;5.244;2023-04-28T07:20:02;16.8;;;14.1;;
61675;SDS011;47574;52.090;5.244;2023-04-28T07:23:15;14.8;;;13.1;;
61675;SDS011;47574;52.090;5.244;2023-04-28T07:24:52;18.61;;;14.6;;
61675;SDS011;47574;52.090;5.244;2023-04-28T07:26:29;18.11;;;15.1;;
61675;SDS011;47574;52.090;5.244;2023-04-28T07:29:42;18.41;;;14.8;;
61675;SDS011;47574;52.090;5.244;2023-04-28T07:31:18;16.7;;;14.4;;
61675;SDS011;47574;52.090;5.244;2023-04-28T07:32:54;19.0;;;14.9;;
61675;SDS011;47574;52.090;5.244;2023-04-28T07:36:06;18.8;;;14.6;;
61675;SDS011;47574;52.090;5.244;2023-04-28T07:37:42;18.5;;;14.3;;
61675;SDS011;47574;52.090;5.244;2023-04-28T07:39:19;19.0;;;14.5;;
61675;SDS011;47574;52.090;5.244;2023-04-28T07:40:55;19.3;;;15.6;;
61675;SDS011;47574;52.090;5.244;2023-04-28T07:44:07;17.3;;;14.9;;
61675;SDS011;47574;52.090;5.244;2023-04-28T07:45:43;19.91;;;14.6;;
61675;SDS011;47574;52.090;5.244;2023-04-28T07:47:19;18.5;;;14.6;;
61675;SDS011;47574;52.090;5.244;2023-04-28T07:50:32;23.1;;;16.11;;
61675;SDS011;47574;52.090;5.244;2023-04-28T07:52:09;21.7;;;16.0;;
61675;SDS011;47574;52.090;5.244;2023-04-28T07:53:45;19.7;;;15.1;;
61675;SDS011;47574;52.090;5.244;2023-04-28T07:56:57;16.7;;;14.0;;
61675;SDS011;47574;52.090;5.244;2023-04-28T07:58:33;18.8;;;15.0;;
61675;SDS011;47574;52.090;5.244;2023-04-28T08:00:09;18.3;;;15.0;;
61675;SDS011;47574;52.090;5.244;2023-04-28T08:03:22;21.4;;;16.0;;
61675;SDS011;47574;52.090;5.244;2023-04-28T08:04:58;30.9;;;16.7;;
61675;SDS011;47574;52.090;5.244;2023-04-28T08:06:35;27.5;;;16.7;;
61675;SDS011;47574;52.090;5.244;2023-04-28T08:08:11;20.7;;;16.61;;
61675;SDS011;47574;52.090;5.244;2023-04-28T08:11:23;21.0;;;17.0;;
61675;SDS011;47574;52.090;5.244;2023-04-28T08:13:00;20.2;;;17.0;;
61675;SDS011;47574;52.090;5.244;2023-04-28T08:14:36;20.11;;;17.0;;
61675;SDS011;47574;52.090;5.244;2023-04-28T08:17:49;22.1;;;17.91;;
61675;SDS011;47574;52.090;5.244;2023-04-28T08:19:26;22.3;;;17.7;;
61675;SDS011;47574;52.090;5.244;2023-04-28T08:21:02;25.6;;;18.5;;
61675;SDS011;47574;52.090;5.244;2023-04-28T08:24:14;22.6;;;18.11;;
61675;SDS011;47574;52.090;5.244;2023-04-28T08:25:50;23.5;;;19.5;;
61675;SDS011;47574;52.090;5.244;2023-04-28T08:27:26;24.3;;;19.61;;
61675;SDS011;47574;52.090;5.244;2023-04-28T08:29:03;24.6;;;20.11;;
61675;SDS011;47574;52.090;5.244;2023-04-28T08:32:15;25.6;;;21.0;;
61675;SDS011;47574;52.090;5.244;2023-04-28T08:33:51;25.4;;;21.4;;
61675;SDS011;47574;52.090;5.244;2023-04-28T08:35:27;25.5;;;22.4;;
61675;SDS011;47574;52.090;5.244;2023-04-28T08:38:41;29.0;;;22.3;;
61675;SDS011;47574;52.090;5.244;2023-04-28T08:40:17;24.6;;;21.9;;
61675;SDS011;47574;52.090;5.244;2023-04-28T08:41:55;26.8;;;23.9;;
61675;SDS011;47574;52.090;5.244;2023-04-28T08:45:08;28.0;;;24.0;;
61675;SDS011;47574;52.090;5.244;2023-04-28T08:46:48;27.4;;;23.5;;
61675;SDS011;47574;52.090;5.244;2023-04-28T08:48:28;29.0;;;24.1;;
61675;SDS011;47574;52.090;5.244;2023-04-28T08:50:13;28.1;;;24.7;;
61675;SDS011;47574;52.090;5.244;2023-04-28T08:53:36;29.3;;;25.8;;
61675;SDS011;47574;52.090;5.244;2023-04-28T08:55:13;28.4;;;25.4;;
61675;SDS011;47574;52.090;5.244;2023-04-28T08:56:51;29.1;;;25.9;;
61675;SDS011;47574;52.090;5.244;2023-04-28T08:58:27;30.4;;;26.0;;
61675;SDS011;47574;52.090;5.244;2023-04-28T09:01:40;29.3;;;25.1;;
61675;SDS011;47574;52.090;5.244;2023-04-28T09:03:16;29.7;;;26.5;;
61675;SDS011;47574;52.090;5.244;2023-04-28T09:04:52;27.9;;;24.9;;
61675;SDS011;47574;52.090;5.244;2023-04-28T09:08:07;28.9;;;25.8;;
61675;SDS011;47574;52.090;5.244;2023-04-28T09:09:43;28.5;;;25.5;;
61675;SDS011;47574;52.090;5.244;2023-04-28T09:11:20;29.6;;;26.5;;
61675;SDS011;47574;52.090;5.244;2023-04-28T09:12:56;31.5;;;26.7;;
61675;SDS011;47574;52.090;5.244;2023-04-28T09:16:11;31.5;;;28.1;;
61675;SDS011;47574;52.090;5.244;2023-04-28T09:17:47;30.5;;;27.2;;
61675;SDS011;47574;52.090;5.244;2023-04-28T09:19:25;30.7;;;26.0;;
61675;SDS011;47574;52.090;5.244;2023-04-28T09:22:44;29.4;;;26.2;;
61675;SDS011;47574;52.090;5.244;2023-04-28T09:24:28;32.3;;;26.4;;
61675;SDS011;47574;52.090;5.244;2023-04-28T09:26:06;28.1;;;24.9;;
61675;SDS011;47574;52.090;5.244;2023-04-28T09:27:43;29.8;;;25.2;;
61675;SDS011;47574;52.090;5.244;2023-04-28T09:30:55;28.5;;;25.1;;
61675;SDS011;47574;52.090;5.244;2023-04-28T09:32:31;30.9;;;26.7;;
61675;SDS011;47574;52.090;5.244;2023-04-28T09:34:07;29.3;;;26.2;;
61675;SDS011;47574;52.090;5.244;2023-04-28T09:37:21;28.7;;;25.7;;
61675;SDS011;47574;52.090;5.244;2023-04-28T09:38:58;26.2;;;23.5;;
61675;SDS011;47574;52.090;5.244;2023-04-28T09:40:47;25.8;;;23.2;;
61675;SDS011;47574;52.090;5.244;2023-04-28T09:42:30;26.4;;;23.7;;
61675;SDS011;47574;52.090;5.244;2023-04-28T09:45:46;24.2;;;21.8;;
61675;SDS011;47574;52.090;5.244;2023-04-28T09:47:22;24.6;;;22.2;;
61675;SDS011;47574;52.090;5.244;2023-04-28T09:48:59;21.9;;;19.91;;
61675;SDS011;47574;52.090;5.244;2023-04-28T09:50:39;22.8;;;20.6;;
61675;SDS011;47574;52.090;5.244;2023-04-28T09:53:51;23.7;;;21.4;;
61675;SDS011;47574;52.090;5.244;2023-04-28T09:55:28;20.3;;;18.41;;
61675;SDS011;47574;52.090;5.244;2023-04-28T09:57:08;22.5;;;20.3;;
61675;SDS011;47574;52.090;5.244;2023-04-28T10:00:25;24.7;;;22.3;;
61675;SDS011;47574;52.090;5.244;2023-04-28T10:02:02;25.1;;;22.6;;
61675;SDS011;47574;52.090;5.244;2023-04-28T10:03:40;23.6;;;21.4;;
61675;SDS011;47574;52.090;5.244;2023-04-28T10:05:17;23.5;;;21.2;;
61675;SDS011;47574;52.090;5.244;2023-04-28T10:08:32;25.0;;;22.4;;
61675;SDS011;47574;52.090;5.244;2023-04-28T10:10:09;25.1;;;22.6;;
61675;SDS011;47574;52.090;5.244;2023-04-28T10:11:46;23.8;;;21.5;;
61675;SDS011;47574;52.090;5.244;2023-04-28T10:14:59;24.1;;;21.8;;
61675;SDS011;47574;52.090;5.244;2023-04-28T10:16:37;23.9;;;21.6;;
61675;SDS011;47574;52.090;5.244;2023-04-28T10:18:13;22.2;;;19.91;;
61675;SDS011;47574;52.090;5.244;2023-04-28T10:21:28;23.6;;;21.4;;
61675;SDS011;47574;52.090;5.244;2023-04-28T10:24:17;23.0;;;20.9;;
61675;SDS011;47574;52.090;5.244;2023-04-28T10:26:01;24.3;;;21.9;;
61675;SDS011;47574;52.090;5.244;2023-04-28T10:27:45;25.0;;;22.5;;
61675;SDS011;47574;52.090;5.244;2023-04-28T10:29:24;24.4;;;22.0;;
61675;SDS011;47574;52.090;5.244;2023-04-28T10:31:08;24.3;;;22.0;;
61675;SDS011;47574;52.090;5.244;2023-04-28T10:32:45;23.9;;;21.6;;
61675;SDS011;47574;52.090;5.244;2023-04-28T10:35:59;23.0;;;20.8;;
61675;SDS011;47574;52.090;5.244;2023-04-28T10:38:08;25.3;;;22.6;;
61675;SDS011;47574;52.090;5.244;2023-04-28T10:40:49;26.1;;;23.5;;
61675;SDS011;47574;52.090;5.244;2023-04-28T10:42:58;24.7;;;22.3;;
61675;SDS011;47574;52.090;5.244;2023-04-28T10:44:41;25.7;;;23.1;;
61675;SDS011;47574;52.090;5.244;2023-04-28T10:46:17;26.4;;;23.7;;
61675;SDS011;47574;52.090;5.244;2023-04-28T10:48:00;26.1;;;23.5;;
61675;SDS011;47574;52.090;5.244;2023-04-28T10:50:09;26.1;;;23.3;;
61675;SDS011;47574;52.090;5.244;2023-04-28T10:51:46;28.6;;;25.7;;
61675;SDS011;47574;52.090;5.244;2023-04-28T10:53:30;26.8;;;23.9;;
61675;SDS011;47574;52.090;5.244;2023-04-28T10:55:42;28.3;;;25.4;;
61675;SDS011;47574;52.090;5.244;2023-04-28T10:58:56;25.9;;;23.2;;
61675;SDS011;47574;52.090;5.244;2023-04-28T11:00:33;27.4;;;24.5;;
61675;SDS011;47574;52.090;5.244;2023-04-28T11:02:40;28.5;;;24.8;;
61675;SDS011;47574;52.090;5.244;2023-04-28T11:04:17;28.9;;;25.7;;
61675;SDS011;47574;52.090;5.244;2023-04-28T11:08:33;28.8;;;25.7;;
61675;SDS011;47574;52.090;5.244;2023-04-28T11:10:08;26.4;;;23.5;;
61675;SDS011;47574;52.090;5.244;2023-04-28T11:13:40;25.3;;;21.7;;
61675;SDS011;47574;52.090;5.244;2023-04-28T11:15:17;24.7;;;21.5;;
61675;SDS011;47574;52.090;5.244;2023-04-28T11:16:54;25.6;;;21.1;;
61675;SDS011;47574;52.090;5.244;2023-04-28T11:18:32;23.1;;;20.11;;
61675;SDS011;47574;52.090;5.244;2023-04-28T11:22:02;23.3;;;20.8;;
61675;SDS011;47574;52.090;5.244;2023-04-28T11:23:50;23.1;;;19.7;;
61675;SDS011;47574;52.090;5.244;2023-04-28T11:25:27;22.9;;;19.7;;
61675;SDS011;47574;52.090;5.244;2023-04-28T11:27:03;21.5;;;17.61;;
61675;SDS011;47574;52.090;5.244;2023-04-28T11:32:02;19.11;;;16.2;;
61675;SDS011;47574;52.090;5.244;2023-04-28T11:33:39;20.41;;;16.7;;
61675;SDS011;47574;52.090;5.244;2023-04-28T11:35:17;19.41;;;16.3;;
61675;SDS011;47574;52.090;5.244;2023-04-28T11:38:30;17.7;;;14.5;;
61675;SDS011;47574;52.090;5.244;2023-04-28T11:40:18;16.61;;;14.0;;
61675;SDS011;47574;52.090;5.244;2023-04-28T11:41:54;16.0;;;13.3;;
61675;SDS011;47574;52.090;5.244;2023-04-28T11:45:07;15.7;;;13.2;;
61675;SDS011;47574;52.090;5.244;2023-04-28T11:46:48;15.4;;;13.3;;
61675;SDS011;47574;52.090;5.244;2023-04-28T11:48:25;13.7;;;12.3;;
61675;SDS011;47574;52.090;5.244;2023-04-28T11:50:02;13.8;;;12.1;;
61675;SDS011;47574;52.090;5.244;2023-04-28T11:53:14;13.9;;;12.1;;
61675;SDS011;47574;52.090;5.244;2023-04-28T11:54:55;12.1;;;10.8;;
61675;SDS011;47574;52.090;5.244;2023-04-28T11:56:35;15.8;;;11.2;;
61675;SDS011;47574;52.090;5.244;2023-04-28T11:58:16;11.2;;;10.0;;
61675;SDS011;47574;52.090;5.244;2023-04-28T12:01:48;8.9;;;7.6;;
61675;SDS011;47574;52.090;5.244;2023-04-28T12:03:25;10.0;;;7.7;;
61675;SDS011;47574;52.090;5.244;2023-04-28T12:05:04;7.6;;;6.8;;
61675;SDS011;47574;52.090;5.244;2023-04-28T12:06:41;8.0;;;6.7;;
61675;SDS011;47574;52.090;5.244;2023-04-28T12:10:10;7.4;;;6.6;;
61675;SDS011;47574;52.090;5.244;2023-04-28T12:11:53;9.31;;;7.7;;
61675;SDS011;47574;52.090;5.244;2023-04-28T12:13:30;7.4;;;6.7;;
61675;SDS011;47574;52.090;5.244;2023-04-28T12:15:07;8.5;;;7.2;;
61675;SDS011;47574;52.090;5.244;2023-04-28T12:18:21;6.0;;;5.11;;
61675;SDS011;47574;52.090;5.244;2023-04-28T12:19:57;4.61;;;4.2;;
61675;SDS011;47574;52.090;5.244;2023-04-28T12:21:35;3.7;;;3.4;;
61675;SDS011;47574;52.090;5.244;2023-04-28T12:25:01;4.0;;;3.6;;
61675;SDS011;47574;52.090;5.244;2023-04-28T12:26:38;4.7;;;3.2;;
61675;SDS011;47574;52.090;5.244;2023-04-28T12:28:14;3.4;;;3.1;;
61675;SDS011;47574;52.090;5.244;2023-04-28T12:29:50;3.8;;;3.5;;
61675;SDS011;47574;52.090;5.244;2023-04-28T12:33:03;3.8;;;3.3;;
61675;SDS011;47574;52.090;5.244;2023-04-28T12:34:39;3.9;;;3.6;;
61675;SDS011;47574;52.090;5.244;2023-04-28T12:36:17;4.0;;;3.6;;
61675;SDS011;47574;52.090;5.244;2023-04-28T12:39:31;3.8;;;3.5;;
61675;SDS011;47574;52.090;5.244;2023-04-28T12:41:07;3.7;;;3.3;;
61675;SDS011;47574;52.090;5.244;2023-04-28T12:42:44;3.4;;;3.2;;
61675;SDS011;47574;52.090;5.244;2023-04-28T12:44:20;4.0;;;3.7;;
61675;SDS011;47574;52.090;5.244;2023-04-28T12:47:31;4.5;;;4.2;;
61675;SDS011;47574;52.090;5.244;2023-04-28T12:49:07;4.7;;;4.41;;
61675;SDS011;47574;52.090;5.244;2023-04-28T12:50:45;5.3;;;4.91;;
61675;SDS011;47574;52.090;5.244;2023-04-28T12:53:57;5.6;;;5.2;;
61675;SDS011;47574;52.090;5.244;2023-04-28T12:55:33;6.7;;;6.2;;
61675;SDS011;47574;52.090;5.244;2023-04-28T12:57:09;5.6;;;5.3;;
61675;SDS011;47574;52.090;5.244;2023-04-28T13:00:22;6.6;;;6.2;;